Muson — UGLB — position and weather

sailwx.info

Track history (hours):
 
Tides and Currents Weather Stations Pressure Air Temp Water Temp Dewpoint Dewpoint Depression Visibility Wind Speed Wind Dir Waves Ship Positions

Muson

Last reported at 2016-May-05 16:33 UTC. Time now 2016-May-05 20:00 UTC.
Position N 59°56' E 029°42'.

Length 36 m; draft 4.5 m.

Type: Tug. MMSI: 273444990.

Date/timePositionNaut miles runAvg speedWind from/ knotsBaromVisibWave heightAir tempDewpointWater temp
2016-May-05 16:33N 59°56' E 029°42'0 0.0
2016-May-05 15:33N 59°56' E 029°42'3 1.8
2016-May-05 14:05N 59°59' E 029°44'0 0.0
2016-May-05 13:33N 59°59' E 029°44'0 0.0
2016-May-05 12:32N 59°59' E 029°44'0 0.0
2016-May-05 11:19N 59°59' E 029°44'0 0.0
2016-May-05 10:24N 59°59' E 029°44'0 0.1
2016-May-05 09:33N 59°59' E 029°44'0 0.1
2016-May-05 08:23N 59°58' E 029°45'0 0.1
2016-May-05 07:33N 59°58' E 029°45'0 0.3
2016-May-05 06:27N 59°58' E 029°45'0 0.4
2016-May-05 05:28N 59°58' E 029°45'0 0.5
2016-May-05 04:33N 59°58' E 029°45'1 0.9
2016-May-05 03:32N 59°57' E 029°44'1 1.2
2016-May-05 02:33N 59°56' E 029°42'0 0.0
2016-May-05 01:33N 59°56' E 029°42'0 0.0
2016-May-05 00:32N 59°56' E 029°42'0 0.0
2016-May-04 23:32N 59°56' E 029°42'0 0.0
2016-May-04 22:31N 59°56' E 029°42'0 0.0
2016-May-04 19:32N 59°56' E 029°42'0 0.0
2016-May-04 18:33N 59°56' E 029°42'0 0.0
2016-May-04 16:16N 59°56' E 029°42'0 0.0
2016-May-04 15:29N 59°56' E 029°42'2 1.2
2016-May-04 13:33N 59°58' E 029°45'0 0.3
2016-May-04 12:33N 59°58' E 029°45'0 0.2
2016-May-04 11:33N 59°58' E 029°45'0 0.1
2016-May-04 10:33N 59°58' E 029°45'0 0.4
2016-May-04 09:32N 59°58' E 029°45'0 0.2
2016-May-04 08:27N 59°58' E 029°45'0 0.0
2016-May-04 07:14N 59°58' E 029°45'1 0.3
2016-May-04 05:32N 59°58' E 029°45'0 0.5
2016-May-04 04:32N 59°58' E 029°45'2 1.7
2016-May-04 03:33N 59°57' E 029°44'1 0.9
2016-May-04 02:31N 59°56' E 029°42'0 0.0
2016-May-04 01:30N 59°56' E 029°42'0 0.0
2016-May-04 00:30N 59°56' E 029°42'0 0.0
2016-May-03 23:15N 59°56' E 029°42'0 0.0
2016-May-03 22:32N 59°56' E 029°42'0 0.0
2016-May-03 19:05N 59°56' E 029°42'0 0.0
2016-May-03 16:33N 59°56' E 029°42'0 0.0
2016-May-03 15:33N 59°56' E 029°42'3 1.2
2016-May-03 13:28N 59°59' E 029°44'0 0.0
2016-May-03 12:32N 59°59' E 029°45'1 0.3
2016-May-03 10:33N 59°58' E 029°45'0 0.4
2016-May-03 09:23N 59°58' E 029°45'0 0.2
2016-May-03 07:33N 59°58' E 029°45'1 0.4
2016-May-03 06:22N 59°59' E 029°44'0 0.2
2016-May-03 04:33N 59°58' E 029°45'1 1.5
2016-May-03 03:33N 59°57' E 029°44'1 0.9
2016-May-03 02:33N 59°56' E 029°42'0 0.0
2016-May-03 01:33N 59°56' E 029°42'0 0.0
2016-May-03 00:33N 59°56' E 029°42'0 0.0
2016-May-02 23:32N 59°56' E 029°42'0 0.0
2016-May-02 22:30N 59°56' E 029°42'0 0.0
2016-May-02 21:32N 59°56' E 029°42'0 0.0
2016-May-02 20:29N 59°56' E 029°42'0 0.0
2016-May-02 19:33N 59°56' E 029°42'0 0.0
2016-May-02 18:33N 59°56' E 029°42'0 0.0
2016-May-02 17:33N 59°56' E 029°42'0 0.0
2016-May-02 16:33N 59°56' E 029°42'0 0.0
2016-May-02 15:33N 59°56' E 029°42'3 1.1
2016-May-02 13:15N 59°59' E 029°44'1 1.4
2016-May-02 12:32N 59°58' E 029°44'0 0.2
2016-May-02 10:33N 59°58' E 029°45'1 0.6
2016-May-02 09:26N 59°59' E 029°45'1 0.3
2016-May-02 07:31N 59°58' E 029°45'1 0.5
2016-May-02 06:27N 59°59' E 029°45'0 0.2
2016-May-02 04:32N 59°58' E 029°45'2 1.8
2016-May-02 03:32N 59°57' E 029°43'1 0.5
2016-May-02 02:33N 59°56' E 029°42'0 0.0
2016-May-02 01:33N 59°56' E 029°42'0 0.0
2016-May-02 00:33N 59°56' E 029°42'0 0.0
2016-May-01 23:33N 59°56' E 029°42'0 0.0
2016-May-01 22:33N 59°56' E 029°42'0 0.0
2016-May-01 21:32N 59°56' E 029°42'0 0.0
2016-May-01 20:33N 59°56' E 029°42'0 0.0
2016-May-01 19:33N 59°56' E 029°42'0 0.0
2016-May-01 18:33N 59°56' E 029°42'0 0.0
2016-May-01 17:33N 59°56' E 029°42'0 0.0
2016-May-01 16:33N 59°56' E 029°42'0 0.0
2016-May-01 15:33N 59°56' E 029°42'2 1.2
2016-May-01 13:33N 59°58' E 029°45'1 0.6
2016-May-01 11:33N 59°57' E 029°44'1 0.7
2016-May-01 10:33N 59°58' E 029°45'0 0.0
2016-May-01 09:10N 59°58' E 029°45'1 1.8
2016-May-01 08:33N 59°57' E 029°44'2 1.4
2016-May-01 07:16N 59°59' E 029°45'0 0.1
2016-May-01 06:33N 59°59' E 029°45'0 0.0
2016-May-01 05:29N 59°59' E 029°45'1 1.1
2016-May-01 04:24N 59°57' E 029°44'2 1.9
2016-May-01 03:33N 59°56' E 029°42'0 0.0
2016-May-01 02:32N 59°56' E 029°42'0 0.0
2016-May-01 01:33N 59°56' E 029°42'0 0.0
2016-May-01 00:32N 59°56' E 029°42'0 0.0
2016-Apr-30 23:33N 59°56' E 029°42'0 0.0
2016-Apr-30 22:33N 59°56' E 029°42'0 0.0
2016-Apr-30 21:33N 59°56' E 029°42'0 0.0
2016-Apr-30 20:33N 59°56' E 029°42'0 0.0
2016-Apr-30 19:33N 59°56' E 029°42'0 0.0
2016-Apr-30 18:33N 59°56' E 029°42'0 0.0
2016-Apr-30 17:33N 59°56' E 029°42'0 0.0
2016-Apr-30 16:33N 59°56' E 029°42'0 0.0
2016-Apr-30 15:33N 59°56' E 029°42'2 2.2
2016-Apr-30 14:26N 59°58' E 029°45'0 0.1
2016-Apr-30 13:16N 59°59' E 029°44'0 0.5
2016-Apr-30 12:32N 59°58' E 029°45'0 0.1
2016-Apr-30 11:25N 59°58' E 029°45'0 0.0
2016-Apr-30 10:30N 59°58' E 029°45'0 0.2
2016-Apr-30 09:26N 59°59' E 029°45'0 0.0
2016-Apr-30 08:23N 59°59' E 029°45'0 0.0
2016-Apr-30 07:20N 59°59' E 029°45'0 0.1
2016-Apr-30 06:24N 59°59' E 029°45'1 1.1
2016-Apr-30 05:28N 59°57' E 029°44'1 0.8
2016-Apr-30 04:09N 59°57' E 029°43'1 0.7
2016-Apr-30 03:13N 59°56' E 029°42'0 0.0
2016-Apr-30 02:31N 59°56' E 029°42'0 0.0
2016-Apr-30 01:33N 59°56' E 029°42'0 0.0
2016-Apr-30 00:33N 59°56' E 029°42'0 0.0
2016-Apr-29 23:33N 59°56' E 029°42'0 0.0
2016-Apr-29 22:33N 59°56' E 029°42'2 1.2
2016-Apr-29 20:33N 59°58' E 029°45'0 0.2
2016-Apr-29 19:25N 59°59' E 029°45'0 0.0
2016-Apr-29 18:26N 59°59' E 029°45'0 0.0
2016-Apr-29 17:28N 59°59' E 029°44'2 1.6
2016-Apr-29 16:33N 59°57' E 029°44'0 0.0
2016-Apr-29 15:33N 59°57' E 029°44'0 0.0
2016-Apr-29 14:33N 59°57' E 029°44'1 0.1
2016-Apr-29 06:32N 59°56' E 029°42'0 0.0
2016-Apr-29 05:33N 59°56' E 029°42'3 0.4
2016-Apr-28 23:08N 59°59' E 029°44'1 1.8
2016-Apr-28 22:33N 59°58' E 029°46'1010.1
2016-Apr-28 21:33N 59°54' E 030°05'4 4.0
2016-Apr-28 20:33N 59°53' E 030°12'1 1.4
2016-Apr-28 19:33N 59°55' E 030°14'0 0.0
2016-Apr-28 18:33N 59°55' E 030°14'0 0.0
2016-Apr-28 17:33N 59°55' E 030°14'0 0.0
2016-Apr-28 16:33N 59°55' E 030°14'0 0.0
2016-Apr-28 15:33N 59°55' E 030°14'0 0.0
2016-Apr-28 14:33N 59°55' E 030°14'0 0.0
2016-Apr-28 13:33N 59°55' E 030°14'0 0.0
2016-Apr-28 12:33N 59°55' E 030°14'0 0.0
2016-Apr-28 11:33N 59°55' E 030°14'0 0.0
2016-Apr-28 10:33N 59°55' E 030°14'0 0.0
2016-Apr-28 09:33N 59°55' E 030°14'0 0.0
2016-Apr-28 08:33N 59°55' E 030°14'0 0.0
2016-Apr-28 07:33N 59°55' E 030°14'0 0.0
2016-Apr-28 06:33N 59°55' E 030°14'0 0.0
2016-Apr-28 05:33N 59°55' E 030°14'0 0.0
2016-Apr-28 04:33N 59°55' E 030°14'0 0.0
2016-Apr-28 03:33N 59°55' E 030°14'0 0.0
2016-Apr-28 02:33N 59°55' E 030°14'0 0.0
2016-Apr-28 01:33N 59°55' E 030°14'0 0.0
2016-Apr-28 00:33N 59°55' E 030°14'0 0.0
2016-Apr-27 23:33N 59°55' E 030°14'0 0.0
2016-Apr-27 22:33N 59°55' E 030°14'0 0.0
2016-Apr-27 21:33N 59°55' E 030°14'0 0.0
2016-Apr-27 20:33N 59°55' E 030°14'0 0.0
2016-Apr-27 19:33N 59°55' E 030°14'0 0.0
2016-Apr-27 18:33N 59°55' E 030°14'0 0.0
2016-Apr-27 17:33N 59°55' E 030°14'0 0.0
2016-Apr-27 16:33N 59°55' E 030°14'0 0.0
2016-Apr-27 15:33N 59°55' E 030°14'0 0.0
2016-Apr-27 14:33N 59°55' E 030°14'0 0.0
2016-Apr-27 13:33N 59°55' E 030°14'0 0.0
2016-Apr-27 12:33N 59°55' E 030°14'0 0.0
2016-Apr-27 11:33N 59°55' E 030°14'0 0.0
2016-Apr-27 10:33N 59°55' E 030°14'0 0.0
2016-Apr-27 09:33N 59°55' E 030°14'0 0.0
2016-Apr-27 08:33N 59°55' E 030°14'0 0.0
2016-Apr-27 07:33N 59°55' E 030°14'0 0.0
2016-Apr-27 06:33N 59°55' E 030°14'0 0.0
2016-Apr-27 05:33N 59°55' E 030°14'0 0.0
2016-Apr-27 04:33N 59°55' E 030°14'0 0.0
2016-Apr-27 03:33N 59°55' E 030°14'0 0.0
2016-Apr-27 02:33N 59°55' E 030°14'0 0.0
2016-Apr-27 01:33N 59°55' E 030°14'0 0.0
2016-Apr-27 00:33N 59°55' E 030°14'0 0.0
2016-Apr-26 23:33N 59°55' E 030°14'0 0.0
2016-Apr-26 22:33N 59°55' E 030°14'0 0.0
2016-Apr-26 21:33N 59°55' E 030°14'0 0.0
2016-Apr-26 20:33N 59°55' E 030°14'0 0.0
2016-Apr-26 19:33N 59°55' E 030°14'0 0.0
2016-Apr-26 18:33N 59°55' E 030°14'0 0.0
2016-Apr-26 17:33N 59°55' E 030°14'0 0.0
2016-Apr-26 16:33N 59°55' E 030°14'0 0.0
2016-Apr-26 15:33N 59°55' E 030°14'0 0.0
2016-Apr-26 14:33N 59°55' E 030°14'0 0.1
2016-Apr-26 13:33N 59°54' E 030°14'1 1.0
2016-Apr-26 12:33N 59°55' E 030°15'1 0.9
2016-Apr-26 11:33N 59°55' E 030°14'0 0.0
2016-Apr-26 10:33N 59°55' E 030°14'0 0.0
2016-Apr-26 09:33N 59°55' E 030°14'0 0.0
2016-Apr-26 08:33N 59°55' E 030°14'0 0.0
2016-Apr-26 07:33N 59°55' E 030°14'0 0.0
2016-Apr-26 06:33N 59°55' E 030°14'0 0.0
2016-Apr-26 05:33N 59°55' E 030°14'0 0.0
2016-Apr-26 04:33N 59°55' E 030°14'0 0.0
2016-Apr-26 03:33N 59°55' E 030°14'0 0.0
2016-Apr-26 02:33N 59°55' E 030°14'0 0.0
2016-Apr-26 01:32N 59°55' E 030°14'0 0.0
2016-Apr-26 00:33N 59°55' E 030°14'0 0.0
2016-Apr-25 23:33N 59°55' E 030°14'0 0.0
2016-Apr-25 22:33N 59°55' E 030°14'0 0.0
2016-Apr-25 21:33N 59°55' E 030°14'0 0.0
2016-Apr-25 20:33N 59°55' E 030°14'1 1.1
2016-Apr-25 19:33N 59°55' E 030°16'0 0.0
2016-Apr-25 18:33N 59°55' E 030°16'0 0.1
2016-Apr-25 17:33N 59°55' E 030°16'  
Track history (hours):
 
Tides and Currents Weather Stations Pressure Air Temp Water Temp Dewpoint Dewpoint Depression Visibility Wind Speed Wind Dir Waves Ship Positions

Muson

Last reported at 2016-May-05 16:33 UTC. Time now 2016-May-05 20:00 UTC.
Position N 59°56' E 029°42'.

Length 36 m; draft 4.5 m.

Type: Tug. MMSI: 273444990.

Date/timePositionNaut miles runAvg speedWind from/ knotsBaromVisibWave heightAir tempDewpointWater temp
2016-May-05 16:33N 59°56' E 029°42'0 0.0
2016-May-05 15:33N 59°56' E 029°42'3 1.8
2016-May-05 14:05N 59°59' E 029°44'0 0.0
2016-May-05 13:33N 59°59' E 029°44'0 0.0
2016-May-05 12:32N 59°59' E 029°44'0 0.0
2016-May-05 11:19N 59°59' E 029°44'0 0.0
2016-May-05 10:24N 59°59' E 029°44'0 0.1
2016-May-05 09:33N 59°59' E 029°44'0 0.1
2016-May-05 08:23N 59°58' E 029°45'0 0.1
2016-May-05 07:33N 59°58' E 029°45'0 0.3
2016-May-05 06:27N 59°58' E 029°45'0 0.4
2016-May-05 05:28N 59°58' E 029°45'0 0.5
2016-May-05 04:33N 59°58' E 029°45'1 0.9
2016-May-05 03:32N 59°57' E 029°44'1 1.2
2016-May-05 02:33N 59°56' E 029°42'0 0.0
2016-May-05 01:33N 59°56' E 029°42'0 0.0
2016-May-05 00:32N 59°56' E 029°42'0 0.0
2016-May-04 23:32N 59°56' E 029°42'0 0.0
2016-May-04 22:31N 59°56' E 029°42'0 0.0
2016-May-04 19:32N 59°56' E 029°42'0 0.0
2016-May-04 18:33N 59°56' E 029°42'0 0.0
2016-May-04 16:16N 59°56' E 029°42'0 0.0
2016-May-04 15:29N 59°56' E 029°42'2 1.2
2016-May-04 13:33N 59°58' E 029°45'0 0.3
2016-May-04 12:33N 59°58' E 029°45'0 0.2
2016-May-04 11:33N 59°58' E 029°45'0 0.1
2016-May-04 10:33N 59°58' E 029°45'0 0.4
2016-May-04 09:32N 59°58' E 029°45'0 0.2
2016-May-04 08:27N 59°58' E 029°45'0 0.0
2016-May-04 07:14N 59°58' E 029°45'1 0.3
2016-May-04 05:32N 59°58' E 029°45'0 0.5
2016-May-04 04:32N 59°58' E 029°45'2 1.7
2016-May-04 03:33N 59°57' E 029°44'1 0.9
2016-May-04 02:31N 59°56' E 029°42'0 0.0
2016-May-04 01:30N 59°56' E 029°42'0 0.0
2016-May-04 00:30N 59°56' E 029°42'0 0.0
2016-May-03 23:15N 59°56' E 029°42'0 0.0
2016-May-03 22:32N 59°56' E 029°42'0 0.0
2016-May-03 19:05N 59°56' E 029°42'0 0.0
2016-May-03 16:33N 59°56' E 029°42'0 0.0
2016-May-03 15:33N 59°56' E 029°42'3 1.2
2016-May-03 13:28N 59°59' E 029°44'0 0.0
2016-May-03 12:32N 59°59' E 029°45'1 0.3
2016-May-03 10:33N 59°58' E 029°45'0 0.4
2016-May-03 09:23N 59°58' E 029°45'0 0.2
2016-May-03 07:33N 59°58' E 029°45'1 0.4
2016-May-03 06:22N 59°59' E 029°44'0 0.2
2016-May-03 04:33N 59°58' E 029°45'1 1.5
2016-May-03 03:33N 59°57' E 029°44'1 0.9
2016-May-03 02:33N 59°56' E 029°42'0 0.0
2016-May-03 01:33N 59°56' E 029°42'0 0.0
2016-May-03 00:33N 59°56' E 029°42'0 0.0
2016-May-02 23:32N 59°56' E 029°42'0 0.0
2016-May-02 22:30N 59°56' E 029°42'0 0.0
2016-May-02 21:32N 59°56' E 029°42'0 0.0
2016-May-02 20:29N 59°56' E 029°42'0 0.0
2016-May-02 19:33N 59°56' E 029°42'0 0.0
2016-May-02 18:33N 59°56' E 029°42'0 0.0
2016-May-02 17:33N 59°56' E 029°42'0 0.0
2016-May-02 16:33N 59°56' E 029°42'0 0.0
2016-May-02 15:33N 59°56' E 029°42'3 1.1
2016-May-02 13:15N 59°59' E 029°44'1 1.4
2016-May-02 12:32N 59°58' E 029°44'0 0.2
2016-May-02 10:33N 59°58' E 029°45'1 0.6
2016-May-02 09:26N 59°59' E 029°45'1 0.3
2016-May-02 07:31N 59°58' E 029°45'1 0.5
2016-May-02 06:27N 59°59' E 029°45'0 0.2
2016-May-02 04:32N 59°58' E 029°45'2 1.8
2016-May-02 03:32N 59°57' E 029°43'1 0.5
2016-May-02 02:33N 59°56' E 029°42'0 0.0
2016-May-02 01:33N 59°56' E 029°42'0 0.0
2016-May-02 00:33N 59°56' E 029°42'0 0.0
2016-May-01 23:33N 59°56' E 029°42'0 0.0
2016-May-01 22:33N 59°56' E 029°42'0 0.0
2016-May-01 21:32N 59°56' E 029°42'0 0.0
2016-May-01 20:33N 59°56' E 029°42'0 0.0
2016-May-01 19:33N 59°56' E 029°42'0 0.0
2016-May-01 18:33N 59°56' E 029°42'0 0.0
2016-May-01 17:33N 59°56' E 029°42'0 0.0
2016-May-01 16:33N 59°56' E 029°42'0 0.0
2016-May-01 15:33N 59°56' E 029°42'2 1.2
2016-May-01 13:33N 59°58' E 029°45'1 0.6
2016-May-01 11:33N 59°57' E 029°44'1 0.7
2016-May-01 10:33N 59°58' E 029°45'0 0.0
2016-May-01 09:10N 59°58' E 029°45'1 1.8
2016-May-01 08:33N 59°57' E 029°44'2 1.4
2016-May-01 07:16N 59°59' E 029°45'0 0.1
2016-May-01 06:33N 59°59' E 029°45'0 0.0
2016-May-01 05:29N 59°59' E 029°45'1 1.1
2016-May-01 04:24N 59°57' E 029°44'2 1.9
2016-May-01 03:33N 59°56' E 029°42'0 0.0
2016-May-01 02:32N 59°56' E 029°42'0 0.0
2016-May-01 01:33N 59°56' E 029°42'0 0.0
2016-May-01 00:32N 59°56' E 029°42'0 0.0
2016-Apr-30 23:33N 59°56' E 029°42'0 0.0
2016-Apr-30 22:33N 59°56' E 029°42'0 0.0
2016-Apr-30 21:33N 59°56' E 029°42'0 0.0
2016-Apr-30 20:33N 59°56' E 029°42'0 0.0
2016-Apr-30 19:33N 59°56' E 029°42'0 0.0
2016-Apr-30 18:33N 59°56' E 029°42'0 0.0
2016-Apr-30 17:33N 59°56' E 029°42'0 0.0
2016-Apr-30 16:33N 59°56' E 029°42'0 0.0
2016-Apr-30 15:33N 59°56' E 029°42'2 2.2
2016-Apr-30 14:26N 59°58' E 029°45'0 0.1
2016-Apr-30 13:16N 59°59' E 029°44'0 0.5
2016-Apr-30 12:32N 59°58' E 029°45'0 0.1
2016-Apr-30 11:25N 59°58' E 029°45'0 0.0
2016-Apr-30 10:30N 59°58' E 029°45'0 0.2
2016-Apr-30 09:26N 59°59' E 029°45'0 0.0
2016-Apr-30 08:23N 59°59' E 029°45'0 0.0
2016-Apr-30 07:20N 59°59' E 029°45'0 0.1
2016-Apr-30 06:24N 59°59' E 029°45'1 1.1
2016-Apr-30 05:28N 59°57' E 029°44'1 0.8
2016-Apr-30 04:09N 59°57' E 029°43'1 0.7
2016-Apr-30 03:13N 59°56' E 029°42'0 0.0
2016-Apr-30 02:31N 59°56' E 029°42'0 0.0
2016-Apr-30 01:33N 59°56' E 029°42'0 0.0
2016-Apr-30 00:33N 59°56' E 029°42'0 0.0
2016-Apr-29 23:33N 59°56' E 029°42'0 0.0
2016-Apr-29 22:33N 59°56' E 029°42'2 1.2
2016-Apr-29 20:33N 59°58' E 029°45'0 0.2
2016-Apr-29 19:25N 59°59' E 029°45'0 0.0
2016-Apr-29 18:26N 59°59' E 029°45'0 0.0
2016-Apr-29 17:28N 59°59' E 029°44'2 1.6
2016-Apr-29 16:33N 59°57' E 029°44'0 0.0
2016-Apr-29 15:33N 59°57' E 029°44'0 0.0
2016-Apr-29 14:33N 59°57' E 029°44'1 0.1
2016-Apr-29 06:32N 59°56' E 029°42'0 0.0
2016-Apr-29 05:33N 59°56' E 029°42'3 0.4
2016-Apr-28 23:08N 59°59' E 029°44'1 1.8
2016-Apr-28 22:33N 59°58' E 029°46'1010.1
2016-Apr-28 21:33N 59°54' E 030°05'4 4.0
2016-Apr-28 20:33N 59°53' E 030°12'1 1.4
2016-Apr-28 19:33N 59°55' E 030°14'0 0.0
2016-Apr-28 18:33N 59°55' E 030°14'0 0.0
2016-Apr-28 17:33N 59°55' E 030°14'0 0.0
2016-Apr-28 16:33N 59°55' E 030°14'0 0.0
2016-Apr-28 15:33N 59°55' E 030°14'0 0.0
2016-Apr-28 14:33N 59°55' E 030°14'0 0.0
2016-Apr-28 13:33N 59°55' E 030°14'0 0.0
2016-Apr-28 12:33N 59°55' E 030°14'0 0.0
2016-Apr-28 11:33N 59°55' E 030°14'0 0.0
2016-Apr-28 10:33N 59°55' E 030°14'0 0.0
2016-Apr-28 09:33N 59°55' E 030°14'0 0.0
2016-Apr-28 08:33N 59°55' E 030°14'0 0.0
2016-Apr-28 07:33N 59°55' E 030°14'0 0.0
2016-Apr-28 06:33N 59°55' E 030°14'0 0.0
2016-Apr-28 05:33N 59°55' E 030°14'0 0.0
2016-Apr-28 04:33N 59°55' E 030°14'0 0.0
2016-Apr-28 03:33N 59°55' E 030°14'0 0.0
2016-Apr-28 02:33N 59°55' E 030°14'0 0.0
2016-Apr-28 01:33N 59°55' E 030°14'0 0.0
2016-Apr-28 00:33N 59°55' E 030°14'0 0.0
2016-Apr-27 23:33N 59°55' E 030°14'0 0.0
2016-Apr-27 22:33N 59°55' E 030°14'0 0.0
2016-Apr-27 21:33N 59°55' E 030°14'0 0.0
2016-Apr-27 20:33N 59°55' E 030°14'0 0.0
2016-Apr-27 19:33N 59°55' E 030°14'0 0.0
2016-Apr-27 18:33N 59°55' E 030°14'0 0.0
2016-Apr-27 17:33N 59°55' E 030°14'0 0.0
2016-Apr-27 16:33N 59°55' E 030°14'0 0.0
2016-Apr-27 15:33N 59°55' E 030°14'0 0.0
2016-Apr-27 14:33N 59°55' E 030°14'0 0.0
2016-Apr-27 13:33N 59°55' E 030°14'0 0.0
2016-Apr-27 12:33N 59°55' E 030°14'0 0.0
2016-Apr-27 11:33N 59°55' E 030°14'0 0.0
2016-Apr-27 10:33N 59°55' E 030°14'0 0.0
2016-Apr-27 09:33N 59°55' E 030°14'0 0.0
2016-Apr-27 08:33N 59°55' E 030°14'0 0.0
2016-Apr-27 07:33N 59°55' E 030°14'0 0.0
2016-Apr-27 06:33N 59°55' E 030°14'0 0.0
2016-Apr-27 05:33N 59°55' E 030°14'0 0.0
2016-Apr-27 04:33N 59°55' E 030°14'0 0.0
2016-Apr-27 03:33N 59°55' E 030°14'0 0.0
2016-Apr-27 02:33N 59°55' E 030°14'0 0.0
2016-Apr-27 01:33N 59°55' E 030°14'0 0.0
2016-Apr-27 00:33N 59°55' E 030°14'0 0.0
2016-Apr-26 23:33N 59°55' E 030°14'0 0.0
2016-Apr-26 22:33N 59°55' E 030°14'0 0.0
2016-Apr-26 21:33N 59°55' E 030°14'0 0.0
2016-Apr-26 20:33N 59°55' E 030°14'0 0.0
2016-Apr-26 19:33N 59°55' E 030°14'0 0.0
2016-Apr-26 18:33N 59°55' E 030°14'0 0.0
2016-Apr-26 17:33N 59°55' E 030°14'0 0.0
2016-Apr-26 16:33N 59°55' E 030°14'0 0.0
2016-Apr-26 15:33N 59°55' E 030°14'0 0.0
2016-Apr-26 14:33N 59°55' E 030°14'0 0.1
2016-Apr-26 13:33N 59°54' E 030°14'1 1.0
2016-Apr-26 12:33N 59°55' E 030°15'1 0.9
2016-Apr-26 11:33N 59°55' E 030°14'0 0.0
2016-Apr-26 10:33N 59°55' E 030°14'0 0.0
2016-Apr-26 09:33N 59°55' E 030°14'0 0.0
2016-Apr-26 08:33N 59°55' E 030°14'0 0.0
2016-Apr-26 07:33N 59°55' E 030°14'0 0.0
2016-Apr-26 06:33N 59°55' E 030°14'0 0.0
2016-Apr-26 05:33N 59°55' E 030°14'0 0.0
2016-Apr-26 04:33N 59°55' E 030°14'0 0.0
2016-Apr-26 03:33N 59°55' E 030°14'0 0.0
2016-Apr-26 02:33N 59°55' E 030°14'0 0.0
2016-Apr-26 01:32N 59°55' E 030°14'0 0.0
2016-Apr-26 00:33N 59°55' E 030°14'0 0.0
2016-Apr-25 23:33N 59°55' E 030°14'0 0.0
2016-Apr-25 22:33N 59°55' E 030°14'0 0.0
2016-Apr-25 21:33N 59°55' E 030°14'0 0.0
2016-Apr-25 20:33N 59°55' E 030°14'1 1.1
2016-Apr-25 19:33N 59°55' E 030°16'0 0.0
2016-Apr-25 18:33N 59°55' E 030°16'0 0.1
2016-Apr-25 17:33N 59°55' E 030°16'  

Dump ship's entire track history